sensor_id;sensor_type;location;lat;lon;timestamp;pressure;altitude;pressure_sealevel;temperature;humidity
60307;BME280;46155;52.364;6.580;2023-01-28T04:01:49;102787.19;;;0.91;87.37
60307;BME280;46155;52.364;6.580;2023-01-28T04:04:15;102799.28;;;0.98;87.75
60307;BME280;46155;52.364;6.580;2023-01-28T04:06:51;102800.13;;;0.91;87.25
60307;BME280;46155;52.364;6.580;2023-01-28T04:09:16;102787.91;;;0.90;87.02
60307;BME280;46155;52.364;6.580;2023-01-28T04:11:42;102786.03;;;0.89;88.40
60307;BME280;46155;52.364;6.580;2023-01-28T04:14:07;102797.81;;;1.00;88.35
60307;BME280;46155;52.364;6.580;2023-01-28T04:16:32;102797.22;;;0.95;87.83
60307;BME280;46155;52.364;6.580;2023-01-28T04:18:58;102802.97;;;1.00;87.74
60307;BME280;46155;52.364;6.580;2023-01-28T04:21:23;102804.66;;;0.99;87.84
60307;BME280;46155;52.364;6.580;2023-01-28T04:23:49;102809.25;;;1.02;87.68
60307;BME280;46155;52.364;6.580;2023-01-28T04:26:14;102805.84;;;1.09;87.93
60307;BME280;46155;52.364;6.580;2023-01-28T04:28:40;102800.97;;;1.05;88.35
60307;BME280;46155;52.364;6.580;2023-01-28T04:31:05;102801.75;;;1.03;87.63
60307;BME280;46155;52.364;6.580;2023-01-28T04:33:30;102809.38;;;0.96;87.81
60307;BME280;46155;52.364;6.580;2023-01-28T04:35:56;102809.75;;;0.92;88.21
60307;BME280;46155;52.364;6.580;2023-01-28T04:38:21;102824.13;;;0.90;87.96
60307;BME280;46155;52.364;6.580;2023-01-28T04:40:51;102825.97;;;0.91;88.58
60307;BME280;46155;52.364;6.580;2023-01-28T04:43:16;102822.69;;;0.92;87.57
60307;BME280;46155;52.364;6.580;2023-01-28T04:45:42;102834.84;;;0.93;87.80
60307;BME280;46155;52.364;6.580;2023-01-28T04:48:07;102821.72;;;0.92;88.28
60307;BME280;46155;52.364;6.580;2023-01-28T04:50:33;102831.88;;;0.90;88.51
60307;BME280;46155;52.364;6.580;2023-01-28T04:52:58;102835.38;;;0.91;89.45
60307;BME280;46155;52.364;6.580;2023-01-28T04:55:24;102837.03;;;0.90;89.32
60307;BME280;46155;52.364;6.580;2023-01-28T04:57:49;102840.03;;;0.93;88.70
60307;BME280;46155;52.364;6.580;2023-01-28T05:00:15;102835.81;;;0.94;89.06
60307;BME280;46155;52.364;6.580;2023-01-28T05:02:40;102823.47;;;0.98;89.23
60307;BME280;46155;52.364;6.580;2023-01-28T05:05:06;102816.09;;;1.01;89.11
60307;BME280;46155;52.364;6.580;2023-01-28T05:07:34;102814.88;;;1.05;89.61
60307;BME280;46155;52.364;6.580;2023-01-28T05:09:59;102812.88;;;1.10;88.90
60307;BME280;46155;52.364;6.580;2023-01-28T05:12:24;102822.44;;;1.03;88.42
60307;BME280;46155;52.364;6.580;2023-01-28T05:14:50;102811.25;;;0.97;89.19
60307;BME280;46155;52.364;6.580;2023-01-28T05:17:15;102803.19;;;1.01;89.34
60307;BME280;46155;52.364;6.580;2023-01-28T05:19:40;102800.25;;;1.06;89.67
60307;BME280;46155;52.364;6.580;2023-01-28T05:22:06;102799.63;;;1.14;90.51
60307;BME280;46155;52.364;6.580;2023-01-28T05:24:31;102796.38;;;1.22;89.91
60307;BME280;46155;52.364;6.580;2023-01-28T05:26:56;102794.38;;;1.27;89.97
60307;BME280;46155;52.364;6.580;2023-01-28T05:29:22;102795.09;;;1.26;89.22
60307;BME280;46155;52.364;6.580;2023-01-28T05:31:47;102801.75;;;1.24;91.13
60307;BME280;46155;52.364;6.580;2023-01-28T05:34:12;102806.53;;;1.41;90.92
60307;BME280;46155;52.364;6.580;2023-01-28T05:36:38;102808.97;;;1.26;87.51
60307;BME280;46155;52.364;6.580;2023-01-28T05:39:05;102794.69;;;1.43;88.82
60307;BME280;46155;52.364;6.580;2023-01-28T05:41:32;102798.19;;;1.43;87.86
60307;BME280;46155;52.364;6.580;2023-01-28T05:43:57;102795.75;;;1.37;88.09
60307;BME280;46155;52.364;6.580;2023-01-28T05:46:22;102802.13;;;1.27;87.03
60307;BME280;46155;52.364;6.580;2023-01-28T05:48:49;102796.03;;;1.26;88.31
60307;BME280;46155;52.364;6.580;2023-01-28T05:51:15;102794.97;;;1.31;89.94
60307;BME280;46155;52.364;6.580;2023-01-28T05:53:40;102793.84;;;1.29;88.27
60307;BME280;46155;52.364;6.580;2023-01-28T05:56:07;102802.00;;;1.32;88.63
60307;BME280;46155;52.364;6.580;2023-01-28T05:58:32;102793.53;;;1.33;88.35
60307;BME280;46155;52.364;6.580;2023-01-28T06:00:58;102796.81;;;1.32;88.85
60307;BME280;46155;52.364;6.580;2023-01-28T06:03:23;102800.84;;;1.30;88.15
60307;BME280;46155;52.364;6.580;2023-01-28T06:05:48;102805.38;;;1.38;90.23
60307;BME280;46155;52.364;6.580;2023-01-28T06:08:14;102789.13;;;1.40;88.84
60307;BME280;46155;52.364;6.580;2023-01-28T06:10:39;102791.19;;;1.42;89.49
60307;BME280;46155;52.364;6.580;2023-01-28T06:13:05;102792.69;;;1.27;86.69
60307;BME280;46155;52.364;6.580;2023-01-28T06:15:30;102804.91;;;1.08;86.99
60307;BME280;46155;52.364;6.580;2023-01-28T06:17:55;102803.97;;;1.08;86.24
60307;BME280;46155;52.364;6.580;2023-01-28T06:20:21;102792.69;;;1.07;88.01
60307;BME280;46155;52.364;6.580;2023-01-28T06:22:49;102803.44;;;1.10;87.76
60307;BME280;46155;52.364;6.580;2023-01-28T06:25:15;102803.44;;;1.10;87.54
60307;BME280;46155;52.364;6.580;2023-01-28T06:27:40;102800.66;;;1.09;86.67
60307;BME280;46155;52.364;6.580;2023-01-28T06:30:06;102801.75;;;1.03;85.56
60307;BME280;46155;52.364;6.580;2023-01-28T06:32:31;102802.19;;;0.94;85.34
60307;BME280;46155;52.364;6.580;2023-01-28T06:34:58;102800.88;;;0.77;85.50
60307;BME280;46155;52.364;6.580;2023-01-28T06:37:23;102810.94;;;0.68;86.31
60307;BME280;46155;52.364;6.580;2023-01-28T06:39:48;102812.59;;;0.68;87.86
60307;BME280;46155;52.364;6.580;2023-01-28T06:42:14;102814.72;;;0.78;88.59
60307;BME280;46155;52.364;6.580;2023-01-28T06:44:40;102808.97;;;0.73;85.92
60307;BME280;46155;52.364;6.580;2023-01-28T06:47:05;102817.03;;;0.69;86.42
60307;BME280;46155;52.364;6.580;2023-01-28T06:49:31;102812.81;;;0.70;86.24
60307;BME280;46155;52.364;6.580;2023-01-28T06:51:56;102827.91;;;0.66;86.33
60307;BME280;46155;52.364;6.580;2023-01-28T06:54:22;102830.91;;;0.70;86.04
60307;BME280;46155;52.364;6.580;2023-01-28T06:56:47;102827.78;;;0.72;86.65
60307;BME280;46155;52.364;6.580;2023-01-28T06:59:13;102827.19;;;0.67;86.02
60307;BME280;46155;52.364;6.580;2023-01-28T07:01:38;102829.75;;;0.67;86.41
60307;BME280;46155;52.364;6.580;2023-01-28T07:04:03;102830.78;;;0.62;86.97
60307;BME280;46155;52.364;6.580;2023-01-28T07:06:29;102838.22;;;0.66;88.19
60307;BME280;46155;52.364;6.580;2023-01-28T07:08:54;102843.09;;;0.71;88.05
60307;BME280;46155;52.364;6.580;2023-01-28T07:11:19;102833.25;;;0.81;89.79
60307;BME280;46155;52.364;6.580;2023-01-28T07:13:45;102833.34;;;0.88;89.17
60307;BME280;46155;52.364;6.580;2023-01-28T07:16:11;102839.56;;;0.83;88.71
60307;BME280;46155;52.364;6.580;2023-01-28T07:18:37;102843.16;;;0.78;89.80
60307;BME280;46155;52.364;6.580;2023-01-28T07:21:02;102845.84;;;0.85;90.69
60307;BME280;46155;52.364;6.580;2023-01-28T07:23:27;102850.28;;;0.86;89.81
60307;BME280;46155;52.364;6.580;2023-01-28T07:25:52;102852.09;;;0.80;88.56
60307;BME280;46155;52.364;6.580;2023-01-28T07:28:18;102854.34;;;0.84;90.21
60307;BME280;46155;52.364;6.580;2023-01-28T07:30:51;102847.47;;;0.97;90.58
60307;BME280;46155;52.364;6.580;2023-01-28T07:33:17;102832.78;;;1.03;90.24
60307;BME280;46155;52.364;6.580;2023-01-28T07:35:43;102829.75;;;1.00;88.93
60307;BME280;46155;52.364;6.580;2023-01-28T07:38:08;102839.38;;;1.01;87.64
60307;BME280;46155;52.364;6.580;2023-01-28T07:40:34;102852.25;;;0.94;87.63
60307;BME280;46155;52.364;6.580;2023-01-28T07:42:59;102867.78;;;0.81;88.35
60307;BME280;46155;52.364;6.580;2023-01-28T07:45:25;102872.66;;;0.85;90.19
60307;BME280;46155;52.364;6.580;2023-01-28T07:47:59;102878.09;;;0.94;90.61
60307;BME280;46155;52.364;6.580;2023-01-28T07:50:26;102876.00;;;1.05;91.29
60307;BME280;46155;52.364;6.580;2023-01-28T07:52:53;102875.88;;;1.10;90.54
60307;BME280;46155;52.364;6.580;2023-01-28T07:55:18;102877.94;;;1.13;89.83
60307;BME280;46155;52.364;6.580;2023-01-28T07:57:55;102884.66;;;1.18;89.28
60307;BME280;46155;52.364;6.580;2023-01-28T08:00:22;102882.81;;;1.17;89.14
60307;BME280;46155;52.364;6.580;2023-01-28T08:02:48;102904.97;;;1.15;88.21
60307;BME280;46155;52.364;6.580;2023-01-28T08:05:17;102915.91;;;1.19;89.30
60307;BME280;46155;52.364;6.580;2023-01-28T08:07:44;102909.38;;;1.16;89.33
60307;BME280;46155;52.364;6.580;2023-01-28T08:10:11;102894.25;;;1.19;89.46
60307;BME280;46155;52.364;6.580;2023-01-28T08:12:37;102903.91;;;1.20;89.82
60307;BME280;46155;52.364;6.580;2023-01-28T08:15:03;102908.44;;;1.28;88.07
60307;BME280;46155;52.364;6.580;2023-01-28T08:17:30;102898.72;;;1.20;88.34
60307;BME280;46155;52.364;6.580;2023-01-28T08:19:56;102894.25;;;1.19;89.19
60307;BME280;46155;52.364;6.580;2023-01-28T08:22:25;102888.69;;;1.16;88.82
60307;BME280;46155;52.364;6.580;2023-01-28T08:24:50;102896.13;;;1.20;89.74
60307;BME280;46155;52.364;6.580;2023-01-28T08:27:16;102913.72;;;1.23;89.35
60307;BME280;46155;52.364;6.580;2023-01-28T08:29:41;102908.94;;;1.26;90.87
60307;BME280;46155;52.364;6.580;2023-01-28T08:32:08;102902.84;;;1.25;90.22
60307;BME280;46155;52.364;6.580;2023-01-28T08:34:33;102897.16;;;1.28;90.88
60307;BME280;46155;52.364;6.580;2023-01-28T08:36:59;102901.78;;;1.30;89.55
60307;BME280;46155;52.364;6.580;2023-01-28T08:39:24;102898.06;;;1.28;89.53
60307;BME280;46155;52.364;6.580;2023-01-28T08:41:49;102889.47;;;1.35;90.65
60307;BME280;46155;52.364;6.580;2023-01-28T08:44:14;102897.09;;;1.41;90.63
60307;BME280;46155;52.364;6.580;2023-01-28T08:46:40;102897.31;;;1.42;90.29
60307;BME280;46155;52.364;6.580;2023-01-28T08:49:05;102887.66;;;1.41;88.23
60307;BME280;46155;52.364;6.580;2023-01-28T08:51:30;102885.34;;;1.50;90.04
60307;BME280;46155;52.364;6.580;2023-01-28T08:53:56;102886.16;;;1.56;89.79
60307;BME280;46155;52.364;6.580;2023-01-28T08:56:21;102883.66;;;1.63;90.31
60307;BME280;46155;52.364;6.580;2023-01-28T08:58:46;102894.91;;;1.64;88.78
60307;BME280;46155;52.364;6.580;2023-01-28T09:01:12;102899.19;;;1.63;88.07
60307;BME280;46155;52.364;6.580;2023-01-28T09:03:37;102897.69;;;1.65;88.12
60307;BME280;46155;52.364;6.580;2023-01-28T09:06:03;102877.66;;;1.57;88.55
60307;BME280;46155;52.364;6.580;2023-01-28T09:08:29;102910.50;;;1.71;88.68
60307;BME280;46155;52.364;6.580;2023-01-28T09:10:55;102931.81;;;1.76;88.94
60307;BME280;46155;52.364;6.580;2023-01-28T09:13:21;102933.69;;;1.77;88.37
60307;BME280;46155;52.364;6.580;2023-01-28T09:15:47;102942.94;;;1.75;87.51
60307;BME280;46155;52.364;6.580;2023-01-28T09:18:12;102944.78;;;1.76;87.66
60307;BME280;46155;52.364;6.580;2023-01-28T09:20:38;102945.19;;;1.79;88.51
60307;BME280;46155;52.364;6.580;2023-01-28T09:23:04;102927.66;;;1.83;89.22
60307;BME280;46155;52.364;6.580;2023-01-28T09:25:30;102943.41;;;1.85;88.96
60307;BME280;46155;52.364;6.580;2023-01-28T09:27:56;102947.03;;;1.80;87.43
60307;BME280;46155;52.364;6.580;2023-01-28T09:30:21;102935.16;;;1.75;88.38
60307;BME280;46155;52.364;6.580;2023-01-28T09:32:51;102941.25;;;1.75;87.19
60307;BME280;46155;52.364;6.580;2023-01-28T09:35:16;102950.03;;;1.83;89.10
60307;BME280;46155;52.364;6.580;2023-01-28T09:37:43;102960.38;;;1.83;88.33
60307;BME280;46155;52.364;6.580;2023-01-28T09:40:37;102958.81;;;1.91;88.70
60307;BME280;46155;52.364;6.580;2023-01-28T09:46:10;102977.91;;;1.98;89.05
60307;BME280;46155;52.364;6.580;2023-01-28T09:48:40;102967.16;;;1.95;88.90
60307;BME280;46155;52.364;6.580;2023-01-28T09:51:10;102967.69;;;1.93;88.35
60307;BME280;46155;52.364;6.580;2023-01-28T09:53:44;102964.91;;;1.91;87.89
60307;BME280;46155;52.364;6.580;2023-01-28T09:56:29;102961.84;;;2.01;89.24
60307;BME280;46155;52.364;6.580;2023-01-28T09:58:57;102958.94;;;2.05;90.36
60307;BME280;46155;52.364;6.580;2023-01-28T10:01:49;102960.59;;;2.04;89.12
60307;BME280;46155;52.364;6.580;2023-01-28T10:04:19;102951.88;;;2.04;89.00
60307;BME280;46155;52.364;6.580;2023-01-28T10:20:40;102965.59;;;2.85;80.92
60307;BME280;46155;52.364;6.580;2023-01-28T10:23:07;102962.22;;;2.79;80.32
60307;BME280;46155;52.364;6.580;2023-01-28T10:25:36;102951.47;;;2.75;82.39
60307;BME280;46155;52.364;6.580;2023-01-28T10:28:13;102945.44;;;2.89;82.31
60307;BME280;46155;52.364;6.580;2023-01-28T10:30:43;102949.41;;;3.15;82.15
60307;BME280;46155;52.364;6.580;2023-01-28T10:35:46;102932.47;;;3.53;81.92
60307;BME280;46155;52.364;6.580;2023-01-28T10:38:15;102934.00;;;3.79;80.59
60307;BME280;46155;52.364;6.580;2023-01-28T10:40:42;102936.97;;;3.83;78.56
60307;BME280;46155;52.364;6.580;2023-01-28T10:43:07;102944.03;;;3.84;78.18
60307;BME280;46155;52.364;6.580;2023-01-28T10:45:56;102932.16;;;3.86;77.57
60307;BME280;46155;52.364;6.580;2023-01-28T10:48:34;102933.06;;;3.57;74.88
60307;BME280;46155;52.364;6.580;2023-01-28T10:51:03;102921.94;;;3.02;75.74
60307;BME280;46155;52.364;6.580;2023-01-28T10:53:38;102911.25;;;3.14;79.42
60307;BME280;46155;52.364;6.580;2023-01-28T10:56:16;102913.16;;;3.29;78.08
60307;BME280;46155;52.364;6.580;2023-01-28T10:59:27;102898.84;;;3.33;79.28
60307;BME280;46155;52.364;6.580;2023-01-28T11:02:27;102895.56;;;3.48;78.20
60307;BME280;46155;52.364;6.580;2023-01-28T11:05:20;102887.59;;;3.61;78.56
60307;BME280;46155;52.364;6.580;2023-01-28T11:07:47;102894.28;;;3.73;78.73
60307;BME280;46155;52.364;6.580;2023-01-28T11:12:57;102861.63;;;3.90;77.25
60307;BME280;46155;52.364;6.580;2023-01-28T11:15:24;102847.31;;;4.08;78.94
60307;BME280;46155;52.364;6.580;2023-01-28T11:17:58;102838.72;;;4.23;78.82
60307;BME280;46155;52.364;6.580;2023-01-28T11:20:25;102843.53;;;4.35;76.99
60307;BME280;46155;52.364;6.580;2023-01-28T11:22:53;102846.66;;;4.39;77.05
60307;BME280;46155;52.364;6.580;2023-01-28T11:25:34;102834.63;;;4.40;75.22
60307;BME280;46155;52.364;6.580;2023-01-28T11:28:04;102829.25;;;4.31;77.14
60307;BME280;46155;52.364;6.580;2023-01-28T11:30:32;102826.28;;;4.28;74.28
60307;BME280;46155;52.364;6.580;2023-01-28T11:35:30;102819.91;;;4.40;76.78
60307;BME280;46155;52.364;6.580;2023-01-28T11:38:00;102810.44;;;4.48;76.07
60307;BME280;46155;52.364;6.580;2023-01-28T11:40:26;102802.97;;;4.58;76.47
60307;BME280;46155;52.364;6.580;2023-01-28T11:42:53;102806.78;;;4.69;76.41
60307;BME280;46155;52.364;6.580;2023-01-28T11:45:48;102796.81;;;4.65;74.82
60307;BME280;46155;52.364;6.580;2023-01-28T11:51:28;102802.75;;;4.64;74.92
60307;BME280;46155;52.364;6.580;2023-01-28T11:57:00;102822.47;;;4.55;75.33
60307;BME280;46155;52.364;6.580;2023-01-28T11:59:39;102825.44;;;4.65;74.81
60307;BME280;46155;52.364;6.580;2023-01-28T12:10:03;102831.72;;;4.67;73.38
60307;BME280;46155;52.364;6.580;2023-01-28T12:24:14;102826.25;;;4.80;75.04
60307;BME280;46155;52.364;6.580;2023-01-28T12:26:54;102822.00;;;4.73;74.47
60307;BME280;46155;52.364;6.580;2023-01-28T12:32:33;102825.44;;;4.65;73.93
60307;BME280;46155;52.364;6.580;2023-01-28T12:40:55;102847.38;;;4.53;76.38
60307;BME280;46155;52.364;6.580;2023-01-28T12:46:22;102818.78;;;4.53;76.25
60307;BME280;46155;52.364;6.580;2023-01-28T12:49:00;102828.34;;;4.23;75.50
60307;BME280;46155;52.364;6.580;2023-01-28T12:51:33;102826.66;;;4.24;76.21
60307;BME280;46155;52.364;6.580;2023-01-28T12:54:15;102825.56;;;4.14;75.18
60307;BME280;46155;52.364;6.580;2023-01-28T12:56:48;102826.69;;;4.02;76.24
60307;BME280;46155;52.364;6.580;2023-01-28T12:59:28;102818.88;;;4.09;77.66
60307;BME280;46155;52.364;6.580;2023-01-28T13:02:03;102812.19;;;4.19;78.06
60307;BME280;46155;52.364;6.580;2023-01-28T13:05:12;102803.25;;;4.24;77.38
60307;BME280;46155;52.364;6.580;2023-01-28T13:07:57;102762.38;;;4.30;78.26
60307;BME280;46155;52.364;6.580;2023-01-28T13:10:41;102762.22;;;4.28;78.96
60307;BME280;46155;52.364;6.580;2023-01-28T13:13:36;102753.59;;;4.44;77.81
60307;BME280;46155;52.364;6.580;2023-01-28T13:16:01;102756.78;;;4.41;77.91
60307;BME280;46155;52.364;6.580;2023-01-28T13:24:05;102737.81;;;4.42;77.05
60307;BME280;46155;52.364;6.580;2023-01-28T13:26:56;102720.72;;;4.44;76.59
60307;BME280;46155;52.364;6.580;2023-01-28T13:31:55;102731.81;;;4.51;77.13
60307;BME280;46155;52.364;6.580;2023-01-28T13:34:35;102740.00;;;4.46;76.08
60307;BME280;46155;52.364;6.580;2023-01-28T13:39:33;102748.63;;;4.38;75.60
60307;BME280;46155;52.364;6.580;2023-01-28T13:42:22;102755.13;;;4.35;76.02
60307;BME280;46155;52.364;6.580;2023-01-28T13:44:48;102759.06;;;4.31;76.29
60307;BME280;46155;52.364;6.580;2023-01-28T13:47:32;102759.97;;;4.31;77.11
60307;BME280;46155;52.364;6.580;2023-01-28T13:50:10;102766.84;;;4.24;77.50
60307;BME280;46155;52.364;6.580;2023-01-28T13:52:49;102771.78;;;4.51;85.09
60307;BME280;46155;52.364;6.580;2023-01-28T13:55:22;102776.41;;;4.54;77.94
60307;BME280;46155;52.364;6.580;2023-01-28T14:03:40;102777.56;;;4.41;78.36
60307;BME280;46155;52.364;6.580;2023-01-28T14:08:58;102776.63;;;4.41;79.00
60307;BME280;46155;52.364;6.580;2023-01-28T14:17:02;102785.94;;;4.39;79.49
60307;BME280;46155;52.364;6.580;2023-01-28T14:19:33;102792.81;;;4.38;79.15
60307;BME280;46155;52.364;6.580;2023-01-28T14:22:08;102783.53;;;4.33;78.51
60307;BME280;46155;52.364;6.580;2023-01-28T14:24:36;102791.00;;;4.30;77.81
60307;BME280;46155;52.364;6.580;2023-01-28T14:27:10;102786.53;;;4.29;77.65
60307;BME280;46155;52.364;6.580;2023-01-28T14:32:45;102778.03;;;4.16;77.26
60307;BME280;46155;52.364;6.580;2023-01-28T14:35:18;102774.31;;;4.13;77.78
60307;BME280;46155;52.364;6.580;2023-01-28T14:37:45;102784.19;;;4.09;78.27
60307;BME280;46155;52.364;6.580;2023-01-28T14:40:13;102787.88;;;4.04;78.22
60307;BME280;46155;52.364;6.580;2023-01-28T14:42:42;102786.78;;;4.09;79.28
60307;BME280;46155;52.364;6.580;2023-01-28T14:48:33;102789.38;;;4.09;78.72
60307;BME280;46155;52.364;6.580;2023-01-28T14:51:18;102792.88;;;4.09;79.78
60307;BME280;46155;52.364;6.580;2023-01-28T14:58:50;102805.91;;;4.02;78.48
60307;BME280;46155;52.364;6.580;2023-01-28T15:01:26;102808.88;;;3.98;78.59
60307;BME280;46155;52.364;6.580;2023-01-28T15:03:52;102808.53;;;3.95;79.11
60307;BME280;46155;52.364;6.580;2023-01-28T15:06:21;102814.47;;;3.94;79.47
60307;BME280;46155;52.364;6.580;2023-01-28T15:08:53;102813.00;;;3.89;79.36
60307;BME280;46155;52.364;6.580;2023-01-28T15:11:29;102823.03;;;3.86;79.91
60307;BME280;46155;52.364;6.580;2023-01-28T15:13:56;102814.66;;;3.81;80.11
60307;BME280;46155;52.364;6.580;2023-01-28T15:16:25;102821.91;;;3.76;80.29
60307;BME280;46155;52.364;6.580;2023-01-28T15:18:54;102830.25;;;3.74;80.47
60307;BME280;46155;52.364;6.580;2023-01-28T15:21:22;102825.25;;;3.75;80.98
60307;BME280;46155;52.364;6.580;2023-01-28T15:23:51;102828.03;;;3.77;81.49
60307;BME280;46155;52.364;6.580;2023-01-28T15:26:24;102825.44;;;3.77;81.65
60307;BME280;46155;52.364;6.580;2023-01-28T15:28:51;102814.84;;;3.75;81.88
60307;BME280;46155;52.364;6.580;2023-01-28T15:31:23;102808.94;;;3.69;81.73
60307;BME280;46155;52.364;6.580;2023-01-28T15:34:11;102813.75;;;3.66;81.93
60307;BME280;46155;52.364;6.580;2023-01-28T15:36:37;102804.47;;;3.61;82.50
60307;BME280;46155;52.364;6.580;2023-01-28T15:39:03;102811.69;;;3.78;86.44
60307;BME280;46155;52.364;6.580;2023-01-28T15:41:32;102812.44;;;3.77;82.42
60307;BME280;46155;52.364;6.580;2023-01-28T15:43:59;102804.28;;;3.67;82.19
60307;BME280;46155;52.364;6.580;2023-01-28T15:46:25;102798.56;;;3.55;81.93
60307;BME280;46155;52.364;6.580;2023-01-28T15:48:58;102794.09;;;3.47;82.67
60307;BME280;46155;52.364;6.580;2023-01-28T15:51:29;102795.78;;;3.39;82.83
60307;BME280;46155;52.364;6.580;2023-01-28T15:53:58;102805.22;;;3.31;83.82
60307;BME280;46155;52.364;6.580;2023-01-28T15:56:26;102813.34;;;3.27;82.97
60307;BME280;46155;52.364;6.580;2023-01-28T15:58:53;102814.09;;;3.26;84.28
60307;BME280;46155;52.364;6.580;2023-01-28T16:01:19;102824.47;;;3.26;83.34
60307;BME280;46155;52.364;6.580;2023-01-28T16:03:47;102829.13;;;3.28;84.89
60307;BME280;46155;52.364;6.580;2023-01-28T16:06:30;102827.66;;;3.31;84.44
60307;BME280;46155;52.364;6.580;2023-01-28T16:08:58;102821.50;;;3.30;85.04
60307;BME280;46155;52.364;6.580;2023-01-28T16:11:29;102815.78;;;3.33;85.24
60307;BME280;46155;52.364;6.580;2023-01-28T16:13:56;102826.16;;;3.33;84.50
60307;BME280;46155;52.364;6.580;2023-01-28T16:16:31;102821.69;;;3.24;83.76
60307;BME280;46155;52.364;6.580;2023-01-28T16:18:57;102822.28;;;3.29;85.01
60307;BME280;46155;52.364;6.580;2023-01-28T16:21:25;102819.28;;;3.26;84.52
60307;BME280;46155;52.364;6.580;2023-01-28T16:24:19;102821.88;;;3.26;85.63
60307;BME280;46155;52.364;6.580;2023-01-28T16:26:55;102831.53;;;3.27;85.32
60307;BME280;46155;52.364;6.580;2023-01-28T16:29:21;102811.13;;;3.23;85.65
60307;BME280;46155;52.364;6.580;2023-01-28T16:31:46;102814.84;;;3.25;86.07
60307;BME280;46155;52.364;6.580;2023-01-28T16:34:12;102816.69;;;3.19;85.18
60307;BME280;46155;52.364;6.580;2023-01-28T16:36:37;102812.25;;;3.10;84.95
60307;BME280;46155;52.364;6.580;2023-01-28T16:39:02;102824.81;;;3.00;84.99
60307;BME280;46155;52.364;6.580;2023-01-28T16:41:32;102816.09;;;2.92;85.12
60307;BME280;46155;52.364;6.580;2023-01-28T16:43:58;102825.31;;;2.83;84.98
60307;BME280;46155;52.364;6.580;2023-01-28T16:46:29;102817.50;;;2.76;84.36
60307;BME280;46155;52.364;6.580;2023-01-28T16:48:55;102801.94;;;2.76;84.79
60307;BME280;46155;52.364;6.580;2023-01-28T16:51:20;102797.84;;;2.64;84.91
60307;BME280;46155;52.364;6.580;2023-01-28T16:53:47;102796.16;;;2.57;85.71
60307;BME280;46155;52.364;6.580;2023-01-28T16:56:17;102798.56;;;2.63;85.93
60307;BME280;46155;52.364;6.580;2023-01-28T16:58:44;102794.31;;;2.63;86.27
60307;BME280;46155;52.364;6.580;2023-01-28T17:01:09;102794.13;;;2.62;86.24
60307;BME280;46155;52.364;6.580;2023-01-28T17:03:36;102797.84;;;2.64;85.78
60307;BME280;46155;52.364;6.580;2023-01-28T17:06:02;102798.56;;;2.63;85.22
60307;BME280;46155;52.364;6.580;2023-01-28T17:08:27;102807.63;;;2.59;85.58
60307;BME280;46155;52.364;6.580;2023-01-28T17:10:53;102822.25;;;2.58;85.86
60307;BME280;46155;52.364;6.580;2023-01-28T17:13:19;102811.88;;;2.51;85.49
60307;BME280;46155;52.364;6.580;2023-01-28T17:15:44;102806.31;;;2.48;86.13
60307;BME280;46155;52.364;6.580;2023-01-28T17:18:10;102809.63;;;2.47;87.02
60307;BME280;46155;52.364;6.580;2023-01-28T17:20:36;102803.31;;;2.45;86.79
60307;BME280;46155;52.364;6.580;2023-01-28T17:23:07;102822.41;;;2.46;86.69
60307;BME280;46155;52.364;6.580;2023-01-28T17:25:37;102818.13;;;2.46;87.32
60307;BME280;46155;52.364;6.580;2023-01-28T17:28:03;102813.50;;;2.51;87.79
60307;BME280;46155;52.364;6.580;2023-01-28T17:30:29;102828.16;;;2.50;87.15
60307;BME280;46155;52.364;6.580;2023-01-28T17:32:54;102829.28;;;2.52;87.62
60307;BME280;46155;52.364;6.580;2023-01-28T17:35:19;102834.66;;;2.54;87.41
60307;BME280;46155;52.364;6.580;2023-01-28T17:37:45;102827.63;;;2.53;88.22
60307;BME280;46155;52.364;6.580;2023-01-28T17:40:10;102839.19;;;2.77;90.01
60307;BME280;46155;52.364;6.580;2023-01-28T17:42:39;102839.41;;;2.78;86.70
60307;BME280;46155;52.364;6.580;2023-01-28T17:45:04;102830.31;;;2.82;88.21
60307;BME280;46155;52.364;6.580;2023-01-28T17:47:30;102840.50;;;2.80;86.53
60307;BME280;46155;52.364;6.580;2023-01-28T17:49:56;102831.59;;;2.71;86.40
60307;BME280;46155;52.364;6.580;2023-01-28T17:52:22;102837.66;;;2.64;86.44
60307;BME280;46155;52.364;6.580;2023-01-28T17:54:47;102840.44;;;2.66;87.41
60307;BME280;46155;52.364;6.580;2023-01-28T17:57:12;102853.22;;;2.64;86.70
60307;BME280;46155;52.364;6.580;2023-01-28T17:59:38;102851.50;;;2.57;86.28
60307;BME280;46155;52.364;6.580;2023-01-28T18:02:03;102861.50;;;2.54;86.91
60307;BME280;46155;52.364;6.580;2023-01-28T18:04:30;102859.84;;;2.55;87.49
60307;BME280;46155;52.364;6.580;2023-01-28T18:06:55;102870.63;;;2.58;89.36
60307;BME280;46155;52.364;6.580;2023-01-28T18:09:21;102870.81;;;2.60;87.75
60307;BME280;46155;52.364;6.580;2023-01-28T18:11:46;102866.16;;;2.57;87.35
60307;BME280;46155;52.364;6.580;2023-01-28T18:14:12;102872.81;;;2.55;87.52
60307;BME280;46155;52.364;6.580;2023-01-28T18:16:37;102878.34;;;2.51;86.66
60307;BME280;46155;52.364;6.580;2023-01-28T18:19:03;102875.34;;;2.48;87.38
60307;BME280;46155;52.364;6.580;2023-01-28T18:21:35;102885.72;;;2.48;87.33
60307;BME280;46155;52.364;6.580;2023-01-28T18:24:03;102887.22;;;2.46;87.18
60307;BME280;46155;52.364;6.580;2023-01-28T18:26:28;102892.75;;;2.41;86.95
60307;BME280;46155;52.364;6.580;2023-01-28T18:28:54;102902.38;;;2.43;86.82
60307;BME280;46155;52.364;6.580;2023-01-28T18:31:19;102893.81;;;2.36;86.64
60307;BME280;46155;52.364;6.580;2023-01-28T18:33:45;102900.13;;;2.38;87.70
60307;BME280;46155;52.364;6.580;2023-01-28T18:36:11;102901.25;;;2.40;87.92
60307;BME280;46155;52.364;6.580;2023-01-28T18:38:36;102890.16;;;2.41;87.76
60307;BME280;46155;52.364;6.580;2023-01-28T18:41:02;102893.84;;;2.44;88.45
60307;BME280;46155;52.364;6.580;2023-01-28T18:43:27;102888.47;;;2.42;88.48
60307;BME280;46155;52.364;6.580;2023-01-28T18:45:56;102881.66;;;2.43;88.18
60307;BME280;46155;52.364;6.580;2023-01-28T18:48:23;102882.38;;;2.41;88.99